sensor_id;sensor_type;location;lat;lon;timestamp;pressure;altitude;pressure_sealevel;temperature;humidity
39265;BME280;42646;51.910;7.724;2024-03-22T00:00:15;101537.97;;;9.42;100.00
39265;BME280;42646;51.910;7.724;2024-03-22T00:02:43;101535.44;;;9.41;100.00
39265;BME280;42646;51.910;7.724;2024-03-22T00:05:09;101530.84;;;9.43;100.00
39265;BME280;42646;51.910;7.724;2024-03-22T00:07:35;101532.56;;;9.44;100.00
39265;BME280;42646;51.910;7.724;2024-03-22T00:10:02;101535.94;;;9.46;100.00
39265;BME280;42646;51.910;7.724;2024-03-22T00:12:29;101529.69;;;9.47;100.00
39265;BME280;42646;51.910;7.724;2024-03-22T00:14:55;101522.47;;;9.49;100.00
39265;BME280;42646;51.910;7.724;2024-03-22T00:17:22;101509.91;;;9.51;100.00
39265;BME280;42646;51.910;7.724;2024-03-22T00:19:49;101513.28;;;9.53;100.00
39265;BME280;42646;51.910;7.724;2024-03-22T00:22:16;101507.78;;;9.56;100.00
39265;BME280;42646;51.910;7.724;2024-03-22T00:24:41;101498.72;;;9.58;100.00
39265;BME280;42646;51.910;7.724;2024-03-22T00:27:08;101498.41;;;9.63;100.00
39265;BME280;42646;51.910;7.724;2024-03-22T00:29:34;101497.31;;;9.66;100.00
39265;BME280;42646;51.910;7.724;2024-03-22T00:32:00;101485.63;;;9.68;100.00
39265;BME280;42646;51.910;7.724;2024-03-22T00:34:26;101480.94;;;9.72;100.00
39265;BME280;42646;51.910;7.724;2024-03-22T00:36:54;101479.75;;;9.76;100.00
39265;BME280;42646;51.910;7.724;2024-03-22T00:39:20;101454.78;;;9.78;100.00
39265;BME280;42646;51.910;7.724;2024-03-22T00:41:47;101463.22;;;9.83;100.00
39265;BME280;42646;51.910;7.724;2024-03-22T00:44:12;101459.50;;;9.86;100.00
39265;BME280;42646;51.910;7.724;2024-03-22T00:46:39;101453.22;;;9.87;100.00
39265;BME280;42646;51.910;7.724;2024-03-22T00:49:05;101458.44;;;9.88;100.00
39265;BME280;42646;51.910;7.724;2024-03-22T00:51:32;101460.03;;;9.91;100.00
39265;BME280;42646;51.910;7.724;2024-03-22T00:53:59;101457.00;;;9.96;100.00
39265;BME280;42646;51.910;7.724;2024-03-22T00:56:25;101455.09;;;9.98;100.00
39265;BME280;42646;51.910;7.724;2024-03-22T00:58:52;101451.22;;;10.02;100.00
39265;BME280;42646;51.910;7.724;2024-03-22T01:01:18;101451.97;;;10.04;100.00
39265;BME280;42646;51.910;7.724;2024-03-22T01:03:45;101442.91;;;10.06;100.00
39265;BME280;42646;51.910;7.724;2024-03-22T01:06:10;101446.06;;;10.11;100.00
39265;BME280;42646;51.910;7.724;2024-03-22T01:08:37;101441.47;;;10.13;100.00
39265;BME280;42646;51.910;7.724;2024-03-22T01:11:04;101439.44;;;10.17;100.00
39265;BME280;42646;51.910;7.724;2024-03-22T01:13:31;101438.47;;;10.18;100.00
39265;BME280;42646;51.910;7.724;2024-03-22T01:15:57;101421.97;;;10.26;100.00
39265;BME280;42646;51.910;7.724;2024-03-22T01:18:23;101421.03;;;10.27;100.00
39265;BME280;42646;51.910;7.724;2024-03-22T01:20:49;101414.84;;;10.26;100.00
39265;BME280;42646;51.910;7.724;2024-03-22T01:23:16;101415.31;;;10.31;100.00
39265;BME280;42646;51.910;7.724;2024-03-22T01:25:41;101414.47;;;10.31;100.00
39265;BME280;42646;51.910;7.724;2024-03-22T01:28:10;101405.44;;;10.33;100.00
39265;BME280;42646;51.910;7.724;2024-03-22T01:30:36;101408.69;;;10.37;100.00
39265;BME280;42646;51.910;7.724;2024-03-22T01:33:02;101394.44;;;10.38;100.00
39265;BME280;42646;51.910;7.724;2024-03-22T01:35:28;101391.66;;;10.39;100.00
39265;BME280;42646;51.910;7.724;2024-03-22T01:37:55;101384.41;;;10.41;100.00
39265;BME280;42646;51.910;7.724;2024-03-22T01:40:21;101391.19;;;10.46;100.00
39265;BME280;42646;51.910;7.724;2024-03-22T01:42:52;101377.88;;;10.46;100.00
39265;BME280;42646;51.910;7.724;2024-03-22T01:45:20;101372.56;;;10.46;100.00
39265;BME280;42646;51.910;7.724;2024-03-22T01:47:48;101373.53;;;10.45;100.00
39265;BME280;42646;51.910;7.724;2024-03-22T01:50:14;101368.72;;;10.50;100.00
39265;BME280;42646;51.910;7.724;2024-03-22T01:52:41;101375.81;;;10.49;100.00
39265;BME280;42646;51.910;7.724;2024-03-22T01:55:07;101375.81;;;10.49;100.00
39265;BME280;42646;51.910;7.724;2024-03-22T01:57:34;101364.22;;;10.50;100.00
39265;BME280;42646;51.910;7.724;2024-03-22T02:00:01;101367.59;;;10.52;100.00
39265;BME280;42646;51.910;7.724;2024-03-22T02:02:40;101357.81;;;10.53;100.00
39265;BME280;42646;51.910;7.724;2024-03-22T02:05:13;101347.03;;;10.54;100.00
39265;BME280;42646;51.910;7.724;2024-03-22T02:07:40;101341.13;;;10.51;100.00
39265;BME280;42646;51.910;7.724;2024-03-22T02:10:07;101335.81;;;10.51;100.00
39265;BME280;42646;51.910;7.724;2024-03-22T02:12:36;101335.81;;;10.51;100.00
39265;BME280;42646;51.910;7.724;2024-03-22T02:15:02;101329.66;;;10.50;100.00
39265;BME280;42646;51.910;7.724;2024-03-22T02:17:29;101328.81;;;10.50;100.00
39265;BME280;42646;51.910;7.724;2024-03-22T02:19:56;101319.00;;;10.50;100.00
39265;BME280;42646;51.910;7.724;2024-03-22T02:22:23;101313.69;;;10.50;100.00
39265;BME280;42646;51.910;7.724;2024-03-22T02:24:50;101315.38;;;10.51;100.00
39265;BME280;42646;51.910;7.724;2024-03-22T02:27:16;101313.69;;;10.50;100.00
39265;BME280;42646;51.910;7.724;2024-03-22T02:29:42;101314.41;;;10.52;100.00
39265;BME280;42646;51.910;7.724;2024-03-22T02:32:09;101312.59;;;10.53;100.00
39265;BME280;42646;51.910;7.724;2024-03-22T02:34:35;101316.09;;;10.53;100.00
39265;BME280;42646;51.910;7.724;2024-03-22T02:37:02;101301.94;;;10.53;100.00
39265;BME280;42646;51.910;7.724;2024-03-22T02:39:28;101302.78;;;10.53;100.00
39265;BME280;42646;51.910;7.724;2024-03-22T02:41:56;101301.72;;;10.56;100.00
39265;BME280;42646;51.910;7.724;2024-03-22T02:44:22;101302.56;;;10.56;100.00
39265;BME280;42646;51.910;7.724;2024-03-22T02:46:49;101295.28;;;10.58;100.00
39265;BME280;42646;51.910;7.724;2024-03-22T02:49:15;101294.44;;;10.58;100.00
39265;BME280;42646;51.910;7.724;2024-03-22T02:51:41;101292.63;;;10.58;100.00
39265;BME280;42646;51.910;7.724;2024-03-22T02:54:07;101285.47;;;10.59;100.00
39265;BME280;42646;51.910;7.724;2024-03-22T02:56:34;101277.63;;;10.57;100.00
39265;BME280;42646;51.910;7.724;2024-03-22T02:59:01;101282.13;;;10.57;100.00
39265;BME280;42646;51.910;7.724;2024-03-22T03:01:27;101275.94;;;10.56;100.00
39265;BME280;42646;51.910;7.724;2024-03-22T03:03:53;101276.78;;;10.57;100.00
39265;BME280;42646;51.910;7.724;2024-03-22T03:06:20;101266.16;;;10.57;100.00
39265;BME280;42646;51.910;7.724;2024-03-22T03:08:46;101260.69;;;10.58;100.00
39265;BME280;42646;51.910;7.724;2024-03-22T03:11:14;101260.69;;;10.58;100.00
39265;BME280;42646;51.910;7.724;2024-03-22T03:13:39;101256.22;;;10.59;100.00
39265;BME280;42646;51.910;7.724;2024-03-22T03:16:08;101252.47;;;10.61;100.00
39265;BME280;42646;51.910;7.724;2024-03-22T03:18:33;101249.44;;;10.66;100.00
39265;BME280;42646;51.910;7.724;2024-03-22T03:21:00;101248.72;;;10.64;100.00
39265;BME280;42646;51.910;7.724;2024-03-22T03:23:26;101243.25;;;10.65;100.00
39265;BME280;42646;51.910;7.724;2024-03-22T03:25:52;101231.63;;;10.66;100.00
39265;BME280;42646;51.910;7.724;2024-03-22T03:28:18;101234.06;;;10.69;100.00
39265;BME280;42646;51.910;7.724;2024-03-22T03:30:45;101217.41;;;10.67;100.00
39265;BME280;42646;51.910;7.724;2024-03-22T03:33:12;101218.09;;;10.69;100.00
39265;BME280;42646;51.910;7.724;2024-03-22T03:35:39;101218.09;;;10.69;100.00
39265;BME280;42646;51.910;7.724;2024-03-22T03:38:04;101212.78;;;10.69;100.00
39265;BME280;42646;51.910;7.724;2024-03-22T03:40:31;101212.78;;;10.69;100.00
39265;BME280;42646;51.910;7.724;2024-03-22T03:42:57;101209.41;;;10.67;100.00
39265;BME280;42646;51.910;7.724;2024-03-22T03:45:23;101209.41;;;10.67;100.00
39265;BME280;42646;51.910;7.724;2024-03-22T03:47:49;101204.09;;;10.67;100.00
39265;BME280;42646;51.910;7.724;2024-03-22T03:50:17;101197.06;;;10.66;100.00
39265;BME280;42646;51.910;7.724;2024-03-22T03:52:43;101197.06;;;10.66;100.00
39265;BME280;42646;51.910;7.724;2024-03-22T03:55:10;101199.84;;;10.65;100.00
39265;BME280;42646;51.910;7.724;2024-03-22T03:57:35;101183.88;;;10.65;100.00
39265;BME280;42646;51.910;7.724;2024-03-22T04:00:02;101174.06;;;10.65;100.00
39265;BME280;42646;51.910;7.724;2024-03-22T04:02:31;101175.75;;;10.66;100.00
39265;BME280;42646;51.910;7.724;2024-03-22T04:04:58;101170.56;;;10.65;100.00
39265;BME280;42646;51.910;7.724;2024-03-22T04:07:25;101166.94;;;10.66;100.00
39265;BME280;42646;51.910;7.724;2024-03-22T04:09:52;101160.63;;;10.67;100.00
39265;BME280;42646;51.910;7.724;2024-03-22T04:12:17;101156.28;;;10.66;100.00
39265;BME280;42646;51.910;7.724;2024-03-22T04:14:44;101157.03;;;10.68;100.00
39265;BME280;42646;51.910;7.724;2024-03-22T04:17:10;101156.75;;;10.71;100.00
39265;BME280;42646;51.910;7.724;2024-03-22T04:19:36;101158.72;;;10.69;100.00
39265;BME280;42646;51.910;7.724;2024-03-22T04:22:03;101156.06;;;10.69;100.00
39265;BME280;42646;51.910;7.724;2024-03-22T04:24:31;101156.91;;;10.69;100.00
39265;BME280;42646;51.910;7.724;2024-03-22T04:26:57;101151.31;;;10.73;100.00
39265;BME280;42646;51.910;7.724;2024-03-22T04:29:24;101149.50;;;10.73;100.00
39265;BME280;42646;51.910;7.724;2024-03-22T04:31:49;101143.47;;;10.71;100.00
39265;BME280;42646;51.910;7.724;2024-03-22T04:34:16;101144.31;;;10.72;100.00
39265;BME280;42646;51.910;7.724;2024-03-22T04:36:42;101142.38;;;10.74;100.00
39265;BME280;42646;51.910;7.724;2024-03-22T04:39:10;101142.25;;;10.75;100.00
39265;BME280;42646;51.910;7.724;2024-03-22T04:41:39;101142.09;;;10.77;100.00
39265;BME280;42646;51.910;7.724;2024-03-22T04:44:05;101141.78;;;10.91;100.00
39265;BME280;42646;51.910;7.724;2024-03-22T04:46:31;101137.84;;;10.85;100.00
39265;BME280;42646;51.910;7.724;2024-03-22T04:48:58;101129.88;;;10.85;100.00
39265;BME280;42646;51.910;7.724;2024-03-22T04:51:23;101134.22;;;10.86;100.00
39265;BME280;42646;51.910;7.724;2024-03-22T04:53:50;101111.81;;;10.89;100.00
39265;BME280;42646;51.910;7.724;2024-03-22T04:56:16;101117.72;;;10.92;100.00
39265;BME280;42646;51.910;7.724;2024-03-22T04:58:44;101130.06;;;10.93;100.00
39265;BME280;42646;51.910;7.724;2024-03-22T05:01:09;101119.13;;;10.96;100.00
39265;BME280;42646;51.910;7.724;2024-03-22T05:03:38;101114.41;;;11.00;100.00
39265;BME280;42646;51.910;7.724;2024-03-22T05:06:04;101115.94;;;11.03;100.00
39265;BME280;42646;51.910;7.724;2024-03-22T05:08:32;101118.38;;;11.06;100.00
39265;BME280;42646;51.910;7.724;2024-03-22T05:10:57;101126.34;;;11.06;100.00
39265;BME280;42646;51.910;7.724;2024-03-22T05:13:24;101116.56;;;11.06;100.00
39265;BME280;42646;51.910;7.724;2024-03-22T05:15:51;101112.81;;;11.09;100.00
39265;BME280;42646;51.910;7.724;2024-03-22T05:18:19;101103.56;;;11.13;100.00
39265;BME280;42646;51.910;7.724;2024-03-22T05:20:44;101102.31;;;11.17;100.00
39265;BME280;42646;51.910;7.724;2024-03-22T05:23:11;101099.53;;;11.18;100.00
39265;BME280;42646;51.910;7.724;2024-03-22T05:25:37;101101.09;;;11.21;100.00
39265;BME280;42646;51.910;7.724;2024-03-22T05:28:04;101096.34;;;11.24;100.00
39265;BME280;42646;51.910;7.724;2024-03-22T05:30:29;101099.44;;;11.30;100.00
39265;BME280;42646;51.910;7.724;2024-03-22T05:32:57;101095.66;;;11.32;100.00
39265;BME280;42646;51.910;7.724;2024-03-22T05:35:23;101101.72;;;11.34;100.00
39265;BME280;42646;51.910;7.724;2024-03-22T05:37:50;101101.59;;;11.36;100.00
39265;BME280;42646;51.910;7.724;2024-03-22T05:40:16;101101.34;;;11.39;100.00
39265;BME280;42646;51.910;7.724;2024-03-22T05:42:43;101109.88;;;11.42;100.00
39265;BME280;42646;51.910;7.724;2024-03-22T05:45:09;101112.47;;;11.54;100.00
39265;BME280;42646;51.910;7.724;2024-03-22T05:47:36;101114.44;;;11.52;100.00
39265;BME280;42646;51.910;7.724;2024-03-22T05:50:05;101109.09;;;11.52;100.00
39265;BME280;42646;51.910;7.724;2024-03-22T05:52:33;101101.81;;;11.54;100.00
39265;BME280;42646;51.910;7.724;2024-03-22T05:54:59;101101.56;;;11.57;100.00
39265;BME280;42646;51.910;7.724;2024-03-22T05:57:26;101100.56;;;11.58;100.00
39265;BME280;42646;51.910;7.724;2024-03-22T05:59:52;101091.44;;;11.60;100.00
39265;BME280;42646;51.910;7.724;2024-03-22T06:02:19;101093.13;;;11.61;100.00
39265;BME280;42646;51.910;7.724;2024-03-22T06:04:45;101091.22;;;11.73;100.00
39265;BME280;42646;51.910;7.724;2024-03-22T06:07:14;101080.25;;;11.66;100.00
39265;BME280;42646;51.910;7.724;2024-03-22T06:09:42;101074.66;;;11.69;100.00
39265;BME280;42646;51.910;7.724;2024-03-22T06:12:12;101077.03;;;11.72;100.00
39265;BME280;42646;51.910;7.724;2024-03-22T06:14:39;101074.28;;;11.74;100.00
39265;BME280;42646;51.910;7.724;2024-03-22T06:17:06;101067.31;;;11.83;100.00
39265;BME280;42646;51.910;7.724;2024-03-22T06:19:32;101079.91;;;11.81;100.00
39265;BME280;42646;51.910;7.724;2024-03-22T06:21:58;101072.63;;;11.83;100.00
39265;BME280;42646;51.910;7.724;2024-03-22T06:24:26;101076.00;;;11.85;100.00
39265;BME280;42646;51.910;7.724;2024-03-22T06:26:52;101078.41;;;11.88;100.00
39265;BME280;42646;51.910;7.724;2024-03-22T06:29:18;101073.75;;;11.90;100.00
39265;BME280;42646;51.910;7.724;2024-03-22T06:31:46;101064.22;;;11.97;100.00
39265;BME280;42646;51.910;7.724;2024-03-22T06:34:11;101072.22;;;11.97;100.00
39265;BME280;42646;51.910;7.724;2024-03-22T06:36:38;101072.13;;;11.98;100.00
39265;BME280;42646;51.910;7.724;2024-03-22T06:39:04;101067.47;;;12.00;100.00
39265;BME280;42646;51.910;7.724;2024-03-22T06:41:34;101062.84;;;12.02;100.00
39265;BME280;42646;51.910;7.724;2024-03-22T06:44:00;101066.22;;;12.05;100.00
39265;BME280;42646;51.910;7.724;2024-03-22T06:46:27;101073.25;;;12.06;100.00
39265;BME280;42646;51.910;7.724;2024-03-22T06:48:53;101079.03;;;12.11;100.00
39265;BME280;42646;51.910;7.724;2024-03-22T06:51:20;101078.03;;;12.12;100.00
39265;BME280;42646;51.910;7.724;2024-03-22T06:53:46;101074.53;;;12.11;100.00
39265;BME280;42646;51.910;7.724;2024-03-22T06:56:13;101077.06;;;12.22;100.00
39265;BME280;42646;51.910;7.724;2024-03-22T06:58:40;101081.81;;;12.19;100.00
39265;BME280;42646;51.910;7.724;2024-03-22T07:01:07;101073.41;;;12.23;100.00
39265;BME280;42646;51.910;7.724;2024-03-22T07:03:33;101065.56;;;12.22;100.00
39265;BME280;42646;51.910;7.724;2024-03-22T07:06:00;101068.38;;;12.30;100.00
39265;BME280;42646;51.910;7.724;2024-03-22T07:08:26;101061.91;;;12.33;100.00
39265;BME280;42646;51.910;7.724;2024-03-22T07:10:53;101067.13;;;12.34;100.00
39265;BME280;42646;51.910;7.724;2024-03-22T07:13:20;101054.63;;;12.35;100.00
39265;BME280;42646;51.910;7.724;2024-03-22T07:15:47;101054.47;;;12.36;100.00
39265;BME280;42646;51.910;7.724;2024-03-22T07:18:14;101065.81;;;12.38;100.00
39265;BME280;42646;51.910;7.724;2024-03-22T07:20:41;101056.88;;;12.39;100.00
39265;BME280;42646;51.910;7.724;2024-03-22T07:23:08;101062.19;;;12.49;100.00
39265;BME280;42646;51.910;7.724;2024-03-22T07:25:34;101048.69;;;12.50;100.00
39265;BME280;42646;51.910;7.724;2024-03-22T07:28:00;101044.06;;;12.52;100.00
39265;BME280;42646;51.910;7.724;2024-03-22T07:30:26;101042.38;;;12.61;100.00
39265;BME280;42646;51.910;7.724;2024-03-22T07:32:54;101041.53;;;12.61;100.00
39265;BME280;42646;51.910;7.724;2024-03-22T07:35:20;101030.00;;;12.60;100.00
39265;BME280;42646;51.910;7.724;2024-03-22T07:37:47;101026.94;;;12.65;100.00
39265;BME280;42646;51.910;7.724;2024-03-22T07:40:12;101031.28;;;12.66;100.00
39265;BME280;42646;51.910;7.724;2024-03-22T07:42:39;101042.53;;;12.69;100.00
39265;BME280;42646;51.910;7.724;2024-03-22T07:45:06;101046.44;;;12.75;100.00
39265;BME280;42646;51.910;7.724;2024-03-22T07:47:32;101045.56;;;12.74;100.00
39265;BME280;42646;51.910;7.724;2024-03-22T07:50:01;101043.22;;;12.81;100.00
39265;BME280;42646;51.910;7.724;2024-03-22T07:52:27;101042.06;;;12.93;100.00
39265;BME280;42646;51.910;7.724;2024-03-22T07:54:53;101039.09;;;12.96;100.00
39265;BME280;42646;51.910;7.724;2024-03-22T07:57:20;101035.16;;;13.00;100.00
39265;BME280;42646;51.910;7.724;2024-03-22T07:59:46;101026.41;;;12.98;100.00
39265;BME280;42646;51.910;7.724;2024-03-22T08:02:13;101032.47;;;13.00;100.00
39265;BME280;42646;51.910;7.724;2024-03-22T08:04:38;101035.00;;;13.02;100.00
39265;BME280;42646;51.910;7.724;2024-03-22T08:07:06;101029.50;;;13.03;100.00
39265;BME280;42646;51.910;7.724;2024-03-22T08:09:32;101022.31;;;13.04;100.00
39265;BME280;42646;51.910;7.724;2024-03-22T08:11:59;101033.28;;;13.10;100.00
39265;BME280;42646;51.910;7.724;2024-03-22T08:14:25;101038.91;;;13.17;99.87
39265;BME280;42646;51.910;7.724;2024-03-22T08:16:51;101033.00;;;13.14;99.79
39265;BME280;42646;51.910;7.724;2024-03-22T08:19:17;101045.66;;;13.21;99.33
39265;BME280;42646;51.910;7.724;2024-03-22T08:21:44;101036.09;;;13.28;97.11
39265;BME280;42646;51.910;7.724;2024-03-22T08:24:11;101033.53;;;13.27;97.02
39265;BME280;42646;51.910;7.724;2024-03-22T08:26:38;101030.84;;;13.36;95.32
39265;BME280;42646;51.910;7.724;2024-03-22T08:29:03;101029.03;;;13.27;95.35
39265;BME280;42646;51.910;7.724;2024-03-22T08:31:30;101033.69;;;13.25;96.51
39265;BME280;42646;51.910;7.724;2024-03-22T08:33:56;101023.66;;;13.37;96.05
39265;BME280;42646;51.910;7.724;2024-03-22T08:36:23;101022.38;;;13.41;95.56
39265;BME280;42646;51.910;7.724;2024-03-22T08:38:49;101019.00;;;13.39;96.09
39265;BME280;42646;51.910;7.724;2024-03-22T08:41:17;101023.47;;;13.48;96.34
39265;BME280;42646;51.910;7.724;2024-03-22T08:43:43;101018.75;;;13.60;95.55
39265;BME280;42646;51.910;7.724;2024-03-22T08:46:11;101017.56;;;13.72;90.05
39265;BME280;42646;51.910;7.724;2024-03-22T08:48:36;101006.88;;;13.72;89.61
39265;BME280;42646;51.910;7.724;2024-03-22T08:51:03;101015.19;;;13.69;90.43
39265;BME280;42646;51.910;7.724;2024-03-22T08:53:30;101006.94;;;13.80;88.34
39265;BME280;42646;51.910;7.724;2024-03-22T08:55:57;101004.75;;;13.76;88.80
39265;BME280;42646;51.910;7.724;2024-03-22T08:58:25;101011.56;;;13.88;86.44
39265;BME280;42646;51.910;7.724;2024-03-22T09:00:52;101008.94;;;13.78;86.75
39265;BME280;42646;51.910;7.724;2024-03-22T09:03:18;101006.09;;;13.80;87.12
39265;BME280;42646;51.910;7.724;2024-03-22T09:05:47;100992.44;;;13.83;87.10
39265;BME280;42646;51.910;7.724;2024-03-22T09:08:13;101001.78;;;13.97;87.46
39265;BME280;42646;51.910;7.724;2024-03-22T09:10:39;100993.69;;;13.88;86.80
39265;BME280;42646;51.910;7.724;2024-03-22T09:13:05;100985.94;;;13.85;87.54
39265;BME280;42646;51.910;7.724;2024-03-22T09:15:33;100988.34;;;13.88;88.08
39265;BME280;42646;51.910;7.724;2024-03-22T09:18:00;100985.34;;;13.92;87.90
39265;BME280;42646;51.910;7.724;2024-03-22T09:20:26;100977.25;;;14.01;85.18
39265;BME280;42646;51.910;7.724;2024-03-22T09:22:53;100976.47;;;13.91;85.70
39265;BME280;42646;51.910;7.724;2024-03-22T09:25:19;100966.16;;;13.96;86.43
39265;BME280;42646;51.910;7.724;2024-03-22T09:27:45;100972.28;;;14.06;84.52
39265;BME280;42646;51.910;7.724;2024-03-22T09:30:12;100968.53;;;13.99;86.55
39265;BME280;42646;51.910;7.724;2024-03-22T09:32:41;100968.78;;;14.06;87.72
39265;BME280;42646;51.910;7.724;2024-03-22T09:35:08;100969.13;;;14.11;87.77
39265;BME280;42646;51.910;7.724;2024-03-22T09:37:36;100968.38;;;14.19;85.49
39265;BME280;42646;51.910;7.724;2024-03-22T09:40:02;100970.50;;;14.15;83.55
39265;BME280;42646;51.910;7.724;2024-03-22T09:42:33;100971.50;;;14.14;83.28
39265;BME280;42646;51.910;7.724;2024-03-22T09:45:02;100968.22;;;14.02;83.80
39265;BME280;42646;51.910;7.724;2024-03-22T09:47:30;100967.75;;;14.25;81.72
39265;BME280;42646;51.910;7.724;2024-03-22T09:49:58;100963.09;;;14.09;82.86
39265;BME280;42646;51.910;7.724;2024-03-22T09:52:26;100958.91;;;14.06;84.03
39265;BME280;42646;51.910;7.724;2024-03-22T09:54:53;100953.59;;;14.32;81.95
39265;BME280;42646;51.910;7.724;2024-03-22T09:57:21;100952.63;;;14.15;82.53
39265;BME280;42646;51.910;7.724;2024-03-22T09:59:48;100953.78;;;14.13;83.51
39265;BME280;42646;51.910;7.724;2024-03-22T10:02:16;100960.19;;;14.20;83.36
39265;BME280;42646;51.910;7.724;2024-03-22T10:04:43;100962.09;;;14.28;82.52
39265;BME280;42646;51.910;7.724;2024-03-22T10:07:11;100958.75;;;14.26;83.26
39265;BME280;42646;51.910;7.724;2024-03-22T10:09:39;100958.56;;;14.27;84.22
39265;BME280;42646;51.910;7.724;2024-03-22T10:12:06;100953.75;;;14.31;82.89
39265;BME280;42646;51.910;7.724;2024-03-22T10:14:32;100956.06;;;14.26;82.98
39265;BME280;42646;51.910;7.724;2024-03-22T10:17:00;100948.50;;;14.21;84.08
39265;BME280;42646;51.910;7.724;2024-03-22T10:19:26;100955.38;;;14.24;84.14
39265;BME280;42646;51.910;7.724;2024-03-22T10:21:59;100952.00;;;14.22;85.61
39265;BME280;42646;51.910;7.724;2024-03-22T10:24:26;100951.59;;;14.34;83.92
39265;BME280;42646;51.910;7.724;2024-03-22T10:26:54;100955.91;;;14.27;84.48
39265;BME280;42646;51.910;7.724;2024-03-22T10:29:20;100954.91;;;14.28;84.72
39265;BME280;42646;51.910;7.724;2024-03-22T10:31:47;100955.59;;;14.30;84.69
39265;BME280;42646;51.910;7.724;2024-03-22T10:34:14;100954.06;;;14.28;84.40
39265;BME280;42646;51.910;7.724;2024-03-22T10:36:41;100947.88;;;14.27;83.55
39265;BME280;42646;51.910;7.724;2024-03-22T10:39:07;100938.84;;;14.28;84.16
39265;BME280;42646;51.910;7.724;2024-03-22T10:41:38;100944.97;;;14.21;84.22
39265;BME280;42646;51.910;7.724;2024-03-22T10:44:03;100943.53;;;14.26;84.23
39265;BME280;42646;51.910;7.724;2024-03-22T10:46:31;100945.06;;;14.11;84.66
39265;BME280;42646;51.910;7.724;2024-03-22T10:48:57;100946.53;;;14.05;85.02
39265;BME280;42646;51.910;7.724;2024-03-22T10:51:25;100936.19;;;14.10;84.95
39265;BME280;42646;51.910;7.724;2024-03-22T10:53:53;100938.63;;;14.04;86.19
39265;BME280;42646;51.910;7.724;2024-03-22T10:56:23;100944.84;;;14.04;85.67
39265;BME280;42646;51.910;7.724;2024-03-22T10:58:50;100939.81;;;14.01;85.87
39265;BME280;42646;51.910;7.724;2024-03-22T11:01:24;100946.00;;;14.02;85.42
39265;BME280;42646;51.910;7.724;2024-03-22T11:03:50;100950.50;;;14.01;84.79
39265;BME280;42646;51.910;7.724;2024-03-22T11:06:20;100947.22;;;13.89;85.40
39265;BME280;42646;51.910;7.724;2024-03-22T11:08:51;100941.47;;;13.84;85.51
39265;BME280;42646;51.910;7.724;2024-03-22T11:11:18;100940.09;;;13.80;86.39
39265;BME280;42646;51.910;7.724;2024-03-22T11:13:47;100936.50;;;13.72;87.25
39265;BME280;42646;51.910;7.724;2024-03-22T11:16:15;100933.22;;;13.78;87.17
39265;BME280;42646;51.910;7.724;2024-03-22T11:18:41;100936.91;;;13.77;86.70
39265;BME280;42646;51.910;7.724;2024-03-22T11:21:08;100939.56;;;13.77;86.09
39265;BME280;42646;51.910;7.724;2024-03-22T11:23:34;100930.94;;;13.65;86.89
39265;BME280;42646;51.910;7.724;2024-03-22T11:26:02;100920.00;;;13.58;87.43
39265;BME280;42646;51.910;7.724;2024-03-22T11:28:28;100934.06;;;13.60;87.50
39265;BME280;42646;51.910;7.724;2024-03-22T11:30:55;100930.06;;;13.47;87.37
39265;BME280;42646;51.910;7.724;2024-03-22T11:33:22;100938.22;;;13.45;88.50
39265;BME280;42646;51.910;7.724;2024-03-22T11:35:49;100930.44;;;13.52;87.99
39265;BME280;42646;51.910;7.724;2024-03-22T11:38:15;100924.41;;;13.50;87.22
39265;BME280;42646;51.910;7.724;2024-03-22T11:40:42;100935.41;;;13.47;87.67
39265;BME280;42646;51.910;7.724;2024-03-22T11:43:09;100926.28;;;13.40;87.90
39265;BME280;42646;51.910;7.724;2024-03-22T11:45:36;100925.34;;;13.41;88.50
39265;BME280;42646;51.910;7.724;2024-03-22T11:48:03;100927.88;;;13.32;89.34
39265;BME280;42646;51.910;7.724;2024-03-22T11:50:31;100924.53;;;13.30;89.95
39265;BME280;42646;51.910;7.724;2024-03-22T11:52:57;100924.53;;;13.30;89.93
39265;BME280;42646;51.910;7.724;2024-03-22T11:55:26;100928.59;;;13.34;90.21
39265;BME280;42646;51.910;7.724;2024-03-22T11:57:53;100919.59;;;13.35;89.73
39265;BME280;42646;51.910;7.724;2024-03-22T12:00:20;100931.88;;;13.28;90.66
39265;BME280;42646;51.910;7.724;2024-03-22T12:02:48;100928.81;;;13.14;91.53
39265;BME280;42646;51.910;7.724;2024-03-22T12:05:15;100920.56;;;13.07;92.72
39265;BME280;42646;51.910;7.724;2024-03-22T12:07:42;100917.03;;;13.06;92.97
39265;BME280;42646;51.910;7.724;2024-03-22T12:10:08;100903.28;;;13.01;92.87
39265;BME280;42646;51.910;7.724;2024-03-22T12:12:34;100904.72;;;12.96;93.37
39265;BME280;42646;51.910;7.724;2024-03-22T12:15:02;100900.81;;;13.18;91.82
39265;BME280;42646;51.910;7.724;2024-03-22T12:17:28;100906.38;;;12.97;92.81
39265;BME280;42646;51.910;7.724;2024-03-22T12:19:55;100904.88;;;12.94;93.29
39265;BME280;42646;51.910;7.724;2024-03-22T12:22:21;100894.22;;;12.84;94.44
39265;BME280;42646;51.910;7.724;2024-03-22T12:24:49;100900.41;;;12.85;94.74
39265;BME280;42646;51.910;7.724;2024-03-22T12:27:15;100898.44;;;12.87;95.31
39265;BME280;42646;51.910;7.724;2024-03-22T12:29:42;100894.72;;;12.98;94.30
39265;BME280;42646;51.910;7.724;2024-03-22T12:32:08;100887.44;;;12.90;94.59
39265;BME280;42646;51.910;7.724;2024-03-22T12:34:35;100881.72;;;12.85;95.07
39265;BME280;42646;51.910;7.724;2024-03-22T12:37:01;100877.59;;;12.91;95.08
39265;BME280;42646;51.910;7.724;2024-03-22T12:39:28;100884.38;;;12.85;95.20
39265;BME280;42646;51.910;7.724;2024-03-22T12:41:55;100885.63;;;12.91;94.55